createdAt,value
2016-08-22T00:00:07.295Z,1017.97
2016-08-22T00:00:17.290Z,1018
2016-08-22T00:00:27.286Z,1018.01
2016-08-22T00:00:37.285Z,1018
2016-08-22T00:00:47.276Z,1018
2016-08-22T00:00:57.279Z,1017.97
2016-08-22T00:01:07.267Z,1018.01
2016-08-22T00:01:17.259Z,1017.97
2016-08-22T00:01:27.257Z,1017.99
2016-08-22T00:01:37.257Z,1018
2016-08-22T00:01:47.247Z,1018
2016-08-22T00:01:57.243Z,1017.99
2016-08-22T00:02:07.240Z,1018.02
2016-08-22T00:02:17.237Z,1017.99
2016-08-22T00:02:27.227Z,1018.06
2016-08-22T00:02:37.221Z,1018
2016-08-22T00:02:47.220Z,1018.01
2016-08-22T00:02:57.944Z,1018
2016-08-22T00:03:07.208Z,1017.98
2016-08-22T00:03:17.204Z,1017.96
2016-08-22T00:03:27.201Z,1017.96
2016-08-22T00:03:37.193Z,1018.03
2016-08-22T00:03:47.920Z,1018.05
2016-08-22T00:03:57.184Z,1018.02
2016-08-22T00:04:07.180Z,1017.98
2016-08-22T00:04:17.173Z,1018.01
2016-08-22T00:04:27.169Z,1018.01
2016-08-22T00:04:37.167Z,1017.99
2016-08-22T00:04:47.160Z,1017.97
2016-08-22T00:04:57.154Z,1017.95
2016-08-22T00:05:07.157Z,1017.99
2016-08-22T00:05:17.147Z,1018.03
2016-08-22T00:05:27.141Z,1017.95
2016-08-22T00:05:37.136Z,1017.98
2016-08-22T00:05:47.131Z,1018
2016-08-22T00:05:57.128Z,1017.99
2016-08-22T00:06:07.123Z,1017.98
2016-08-22T00:06:17.119Z,1017.97
2016-08-22T00:06:27.113Z,1018.04
2016-08-22T00:06:37.108Z,1017.97
2016-08-22T00:06:47.106Z,1018.01
2016-08-22T00:06:57.096Z,1018.06
2016-08-22T00:07:07.092Z,1017.95
2016-08-22T00:07:17.089Z,1018.04
2016-08-22T00:07:27.088Z,1018.02
2016-08-22T00:07:37.082Z,1017.99
2016-08-22T00:07:47.085Z,1018.02
2016-08-22T00:07:57.070Z,1018.02
2016-08-22T00:08:07.066Z,1017.99
2016-08-22T00:08:17.060Z,1017.97
2016-08-22T00:08:27.066Z,1018.01
2016-08-22T00:08:37.051Z,1018.03
2016-08-22T00:08:47.043Z,1018.04
2016-08-22T00:08:57.042Z,1017.97
2016-08-22T00:09:07.039Z,1017.98
2016-08-22T00:09:17.030Z,1018.03
2016-08-22T00:09:27.028Z,1018.01
2016-08-22T00:09:37.022Z,1018.02
2016-08-22T00:09:47.018Z,1018.11
2016-08-22T00:09:57.013Z,1018.05
2016-08-22T00:10:07.006Z,1018.03
2016-08-22T00:10:17.003Z,1018.04
2016-08-22T00:10:26.997Z,1018.03
2016-08-22T00:10:36.993Z,1018.01
2016-08-22T00:10:46.987Z,1018.08
2016-08-22T00:10:56.987Z,1017.99
2016-08-22T00:11:06.978Z,1018.05
2016-08-22T00:11:16.975Z,1018.08
2016-08-22T00:11:27.699Z,1018.08
2016-08-22T00:11:36.964Z,1018.04
2016-08-22T00:11:46.959Z,1018.09
2016-08-22T00:11:56.954Z,1018.05
2016-08-22T00:12:06.952Z,1018.1
2016-08-22T00:12:16.947Z,1018.11
2016-08-22T00:12:26.940Z,1018.06
2016-08-22T00:12:36.936Z,1018.11
2016-08-22T00:12:46.931Z,1018.09
2016-08-22T00:12:56.927Z,1018.11
2016-08-22T00:13:06.923Z,1018.06
2016-08-22T00:13:16.919Z,1018.02
2016-08-22T00:13:26.912Z,1018.02
2016-08-22T00:13:36.909Z,1018.08
2016-08-22T00:13:46.903Z,1018.1
2016-08-22T00:13:56.898Z,1018.06
2016-08-22T00:14:06.892Z,1018.05
2016-08-22T00:14:16.903Z,1018.11
2016-08-22T00:14:26.881Z,1018.07
2016-08-22T00:14:36.876Z,1018.09
2016-08-22T00:14:46.871Z,1018.08
2016-08-22T00:14:56.867Z,1018.07
2016-08-22T00:15:06.863Z,1018.08
2016-08-22T00:15:16.859Z,1018.07
2016-08-22T00:15:27.594Z,1018.04
2016-08-22T00:15:36.849Z,1018.14
2016-08-22T00:15:46.850Z,1018.09
2016-08-22T00:15:56.841Z,1018.09
2016-08-22T00:16:06.834Z,1018.03
2016-08-22T00:16:16.831Z,1018.11
2016-08-22T00:16:26.827Z,1018.06
2016-08-22T00:16:36.820Z,1018.12
2016-08-22T00:16:46.813Z,1018.09
2016-08-22T00:16:56.815Z,1018.12
2016-08-22T00:17:06.808Z,1018.12
2016-08-22T00:17:16.802Z,1018.07
2016-08-22T00:17:26.799Z,1018.1
2016-08-22T00:17:36.792Z,1018.1
2016-08-22T00:17:46.786Z,1018.13
2016-08-22T00:17:56.783Z,1018.14
2016-08-22T00:18:06.778Z,1018.1
2016-08-22T00:18:16.773Z,1018.13
2016-08-22T00:18:26.769Z,1018.12
2016-08-22T00:18:37.490Z,1018.12
2016-08-22T00:18:46.757Z,1018.1
2016-08-22T00:18:56.755Z,1018.08
2016-08-22T00:19:06.750Z,1018.15
2016-08-22T00:19:16.744Z,1018.09
2016-08-22T00:19:26.742Z,1018.12
2016-08-22T00:19:36.734Z,1018.14
2016-08-22T00:19:46.731Z,1018.04
2016-08-22T00:19:56.726Z,1018.12
2016-08-22T00:20:07.457Z,1018.11
2016-08-22T00:20:16.717Z,1018.18
2016-08-22T00:20:26.711Z,1018.19
2016-08-22T00:20:36.709Z,1018.11
2016-08-22T00:20:46.700Z,1018.11
2016-08-22T00:20:56.694Z,1018.15
2016-08-22T00:21:07.425Z,1018.18
2016-08-22T00:21:16.686Z,1018.11
2016-08-22T00:21:26.680Z,1018.13
2016-08-22T00:21:36.675Z,1018.15
2016-08-22T00:21:46.671Z,1018.17
2016-08-22T00:21:56.667Z,1018.16
2016-08-22T00:22:07.414Z,1018.15
2016-08-22T00:22:16.658Z,1018.16
2016-08-22T00:22:26.654Z,1018.09
2016-08-22T00:22:36.651Z,1018.09
2016-08-22T00:22:46.644Z,1018.18
2016-08-22T00:22:56.640Z,1018.1
2016-08-22T00:23:06.635Z,1018.15
2016-08-22T00:23:16.636Z,1018.14
2016-08-22T00:23:26.625Z,1018.19
2016-08-22T00:23:36.634Z,1018.14
2016-08-22T00:23:46.618Z,1018.14
2016-08-22T00:23:56.610Z,1018.18
2016-08-22T00:24:06.606Z,1018.15
2016-08-22T00:24:16.599Z,1018.11
2016-08-22T00:24:26.595Z,1018.2
2016-08-22T00:24:36.590Z,1018.16
2016-08-22T00:24:46.587Z,1018.17
2016-08-22T00:24:56.581Z,1018.2
2016-08-22T00:25:06.579Z,1018.19
2016-08-22T00:25:16.572Z,1018.2
2016-08-22T00:25:26.567Z,1018.17
2016-08-22T00:25:36.562Z,1018.16
2016-08-22T00:25:46.557Z,1018.13
2016-08-22T00:25:56.552Z,1018.19
2016-08-22T00:26:06.549Z,1018.15
2016-08-22T00:26:16.543Z,1018.13
2016-08-22T00:26:26.539Z,1018.13
2016-08-22T00:26:36.531Z,1018.1
2016-08-22T00:26:46.527Z,1018.09
2016-08-22T00:26:56.523Z,1018.11
2016-08-22T00:27:06.521Z,1018.13
2016-08-22T00:27:16.514Z,1018.13
2016-08-22T00:27:26.507Z,1018.13
2016-08-22T00:27:37.233Z,1018.14
2016-08-22T00:27:46.498Z,1018.13
2016-08-22T00:27:56.502Z,1018.15
2016-08-22T00:28:06.490Z,1018.11
2016-08-22T00:28:16.485Z,1018.17
2016-08-22T00:28:26.480Z,1018.14
2016-08-22T00:28:36.481Z,1018.14
2016-08-22T00:28:46.480Z,1018.16
2016-08-22T00:28:56.464Z,1018.13
2016-08-22T00:29:06.462Z,1018.1
2016-08-22T00:29:16.457Z,1018.13
2016-08-22T00:29:26.451Z,1018.17
2016-08-22T00:29:36.449Z,1018.12
2016-08-22T00:29:46.442Z,1018.13
2016-08-22T00:29:56.440Z,1018.19
2016-08-22T00:30:06.433Z,1018.13
2016-08-22T00:30:16.427Z,1018.14
2016-08-22T00:30:26.423Z,1018.14
2016-08-22T00:30:36.429Z,1018.15
2016-08-22T00:30:46.415Z,1018.16
2016-08-22T00:30:56.411Z,1018.17
2016-08-22T00:31:06.404Z,1018.19
2016-08-22T00:31:16.402Z,1018.13
2016-08-22T00:31:26.393Z,1018.16
2016-08-22T00:31:36.390Z,1018.17
2016-08-22T00:31:46.386Z,1018.15
2016-08-22T00:31:56.379Z,1018.18
2016-08-22T00:32:06.373Z,1018.13
2016-08-22T00:32:16.371Z,1018.2
2016-08-22T00:32:26.365Z,1018.19
2016-08-22T00:32:36.362Z,1018.16
2016-08-22T00:32:46.356Z,1018.13
2016-08-22T00:32:56.353Z,1018.15
2016-08-22T00:33:06.347Z,1018.12
2016-08-22T00:33:16.343Z,1018.14
2016-08-22T00:33:26.338Z,1018.12
2016-08-22T00:33:36.338Z,1018.16
2016-08-22T00:33:46.331Z,1018.06
2016-08-22T00:33:56.324Z,1018.11
2016-08-22T00:34:06.317Z,1018.09
2016-08-22T00:34:16.313Z,1018.06
2016-08-22T00:34:26.309Z,1018.11
2016-08-22T00:34:36.302Z,1018.09
2016-08-22T00:34:46.299Z,1018.12
2016-08-22T00:34:56.294Z,1018.11
2016-08-22T00:35:06.290Z,1018.07
2016-08-22T00:35:16.283Z,1018.1
2016-08-22T00:35:27.007Z,1018.06
2016-08-22T00:35:36.275Z,1018.06
2016-08-22T00:35:46.269Z,1018.1
2016-08-22T00:35:56.266Z,1018.08
2016-08-22T00:36:06.260Z,1018.09
2016-08-22T00:36:16.255Z,1018.11
2016-08-22T00:36:26.250Z,1018.06
2016-08-22T00:36:36.248Z,1018.11
2016-08-22T00:36:46.241Z,1018.1
2016-08-22T00:36:56.239Z,1018.1
2016-08-22T00:37:06.231Z,1018.12
2016-08-22T00:37:16.227Z,1018.08
2016-08-22T00:37:26.221Z,1018.08
2016-08-22T00:37:36.219Z,1018.1
2016-08-22T00:37:46.212Z,1018.06
2016-08-22T00:37:56.209Z,1018.15
2016-08-22T00:38:06.932Z,1018.1
2016-08-22T00:38:16.199Z,1018.17
2016-08-22T00:38:26.197Z,1018.12
2016-08-22T00:38:36.187Z,1018.11
2016-08-22T00:38:46.183Z,1018.15
2016-08-22T00:38:56.177Z,1018.16
2016-08-22T00:39:06.173Z,1018.14
2016-08-22T00:39:16.171Z,1018.16
2016-08-22T00:39:26.165Z,1018.12
2016-08-22T00:39:36.157Z,1018.12
2016-08-22T00:39:46.155Z,1018.16
2016-08-22T00:39:56.151Z,1018.17
2016-08-22T00:40:06.149Z,1018.12
2016-08-22T00:40:16.140Z,1018.12
2016-08-22T00:40:26.138Z,1018.14
2016-08-22T00:40:36.132Z,1018.16
2016-08-22T00:40:46.128Z,1018.16
2016-08-22T00:40:56.121Z,1018.17
2016-08-22T00:41:06.123Z,1018.16
2016-08-22T00:41:16.113Z,1018.21
2016-08-22T00:41:26.107Z,1018.22
2016-08-22T00:41:36.102Z,1018.17
2016-08-22T00:41:46.096Z,1018.19
2016-08-22T00:41:56.093Z,1018.17
2016-08-22T00:42:06.087Z,1018.15
2016-08-22T00:42:16.082Z,1018.17
2016-08-22T00:42:26.079Z,1018.18
2016-08-22T00:42:36.074Z,1018.15
2016-08-22T00:42:46.068Z,1018.21
2016-08-22T00:42:56.063Z,1018.2
2016-08-22T00:43:06.059Z,1018.16
2016-08-22T00:43:16.057Z,1018.2
2016-08-22T00:43:26.050Z,1018.18
2016-08-22T00:43:36.046Z,1018.22
2016-08-22T00:43:46.042Z,1018.2
2016-08-22T00:43:56.051Z,1018.22
2016-08-22T00:44:06.033Z,1018.16
2016-08-22T00:44:16.026Z,1018.19
2016-08-22T00:44:26.021Z,1018.2
2016-08-22T00:44:36.020Z,1018.19
2016-08-22T00:44:46.010Z,1018.17
2016-08-22T00:44:56.008Z,1018.16
2016-08-22T00:45:06.002Z,1018.17
2016-08-22T00:45:15.999Z,1018.22
2016-08-22T00:45:25.994Z,1018.24
2016-08-22T00:45:35.986Z,1018.2
2016-08-22T00:45:45.981Z,1018.24
2016-08-22T00:45:55.978Z,1018.23
2016-08-22T00:46:05.974Z,1018.22
2016-08-22T00:46:15.969Z,1018.22
2016-08-22T00:46:25.963Z,1018.15
2016-08-22T00:46:35.958Z,1018.17
2016-08-22T00:46:45.955Z,1018.22
2016-08-22T00:46:55.949Z,1018.2
2016-08-22T00:47:05.946Z,1018.23
2016-08-22T00:47:15.943Z,1018.23
2016-08-22T00:47:25.936Z,1018.18
2016-08-22T00:47:35.933Z,1018.2
2016-08-22T00:47:45.927Z,1018.18
2016-08-22T00:47:55.923Z,1018.21
2016-08-22T00:48:05.915Z,1018.21
2016-08-22T00:48:15.909Z,1018.21
2016-08-22T00:48:25.909Z,1018.24
2016-08-22T00:48:35.903Z,1018.24
2016-08-22T00:48:45.895Z,1018.24
2016-08-22T00:48:55.892Z,1018.2
2016-08-22T00:49:05.888Z,1018.23
2016-08-22T00:49:15.880Z,1018.24
2016-08-22T00:49:25.878Z,1018.25
2016-08-22T00:49:35.872Z,1018.22
2016-08-22T00:49:45.871Z,1018.24
2016-08-22T00:49:55.863Z,1018.25
2016-08-22T00:50:05.860Z,1018.26
2016-08-22T00:50:15.852Z,1018.27
2016-08-22T00:50:25.847Z,1018.25
2016-08-22T00:50:35.845Z,1018.24
2016-08-22T00:50:45.840Z,1018.26
2016-08-22T00:50:55.834Z,1018.26
2016-08-22T00:51:05.831Z,1018.28
2016-08-22T00:51:15.830Z,1018.23
2016-08-22T00:51:25.820Z,1018.28
2016-08-22T00:51:35.818Z,1018.26
2016-08-22T00:51:45.810Z,1018.26
2016-08-22T00:51:55.805Z,1018.26
2016-08-22T00:52:05.802Z,1018.28
2016-08-22T00:52:15.795Z,1018.23
2016-08-22T00:52:25.791Z,1018.25
2016-08-22T00:52:35.787Z,1018.27
2016-08-22T00:52:45.790Z,1018.27
2016-08-22T00:52:55.778Z,1018.23
2016-08-22T00:53:05.772Z,1018.27
2016-08-22T00:53:16.497Z,1018.25
2016-08-22T00:53:25.764Z,1018.25
2016-08-22T00:53:35.759Z,1018.3
2016-08-22T00:53:45.753Z,1018.27
2016-08-22T00:53:55.748Z,1018.28
2016-08-22T00:54:05.745Z,1018.27
2016-08-22T00:54:15.737Z,1018.27
2016-08-22T00:54:25.737Z,1018.22
2016-08-22T00:54:35.732Z,1018.25
2016-08-22T00:54:45.725Z,1018.24
2016-08-22T00:54:55.721Z,1018.24
2016-08-22T00:55:05.716Z,1018.25
2016-08-22T00:55:15.711Z,1018.24
2016-08-22T00:55:25.716Z,1018.24
2016-08-22T00:55:35.700Z,1018.21
2016-08-22T00:55:45.695Z,1018.15
2016-08-22T00:55:55.691Z,1018.25
2016-08-22T00:56:05.688Z,1018.22
2016-08-22T00:56:15.680Z,1018.19
2016-08-22T00:56:25.674Z,1018.22
2016-08-22T00:56:35.672Z,1018.2
2016-08-22T00:56:45.666Z,1018.22
2016-08-22T00:56:55.663Z,1018.19
2016-08-22T00:57:05.657Z,1018.16
2016-08-22T00:57:15.652Z,1018.18
2016-08-22T00:57:25.661Z,1018.17
2016-08-22T00:57:35.643Z,1018.15
2016-08-22T00:57:45.638Z,1018.17
2016-08-22T00:57:55.634Z,1018.14
2016-08-22T00:58:05.627Z,1018.11
2016-08-22T00:58:15.628Z,1018.12
2016-08-22T00:58:26.350Z,1018.16
2016-08-22T00:58:35.614Z,1018.16
2016-08-22T00:58:45.610Z,1018.14
2016-08-22T00:58:55.618Z,1018.11
2016-08-22T00:59:05.604Z,1018.16
2016-08-22T00:59:16.325Z,1018.13
2016-08-22T00:59:25.590Z,1018.09
2016-08-22T00:59:35.584Z,1018.1
2016-08-22T00:59:46.309Z,1018.13
2016-08-22T00:59:55.574Z,1018.07
2016-08-22T01:00:05.571Z,1018.15
2016-08-22T01:00:15.567Z,1018.14
2016-08-22T01:00:25.562Z,1018.14
2016-08-22T01:00:35.558Z,1018.15
2016-08-22T01:00:45.552Z,1018.13
2016-08-22T01:00:55.547Z,1018.13
2016-08-22T01:01:05.546Z,1018.1
2016-08-22T01:01:15.539Z,1018.14
2016-08-22T01:01:25.533Z,1018.12
2016-08-22T01:01:35.529Z,1018.13
2016-08-22T01:01:45.524Z,1018.13
2016-08-22T01:01:55.517Z,1018.14
2016-08-22T01:02:05.510Z,1018.16
2016-08-22T01:02:15.508Z,1018.16
2016-08-22T01:02:25.506Z,1018.19
2016-08-22T01:02:35.497Z,1018.16
2016-08-22T01:02:45.495Z,1018.14
2016-08-22T01:02:55.489Z,1018.17
2016-08-22T01:03:05.485Z,1018.16
2016-08-22T01:03:15.478Z,1018.23
2016-08-22T01:03:25.476Z,1018.19
2016-08-22T01:03:35.471Z,1018.19
2016-08-22T01:03:45.466Z,1018.16
2016-08-22T01:03:55.470Z,1018.19
2016-08-22T01:04:05.458Z,1018.18
2016-08-22T01:04:15.451Z,1018.19
2016-08-22T01:04:25.447Z,1018.16
2016-08-22T01:04:35.443Z,1018.19
2016-08-22T01:04:45.439Z,1018.24
2016-08-22T01:04:55.433Z,1018.19
2016-08-22T01:05:05.430Z,1018.13
2016-08-22T01:05:15.427Z,1018.17
2016-08-22T01:05:25.421Z,1018.19
2016-08-22T01:05:36.142Z,1018.23
2016-08-22T01:05:45.407Z,1018.21
2016-08-22T01:05:55.402Z,1018.23
2016-08-22T01:06:05.397Z,1018.2
2016-08-22T01:06:15.393Z,1018.22
2016-08-22T01:06:25.391Z,1018.21
2016-08-22T01:06:35.383Z,1018.19
2016-08-22T01:06:45.378Z,1018.21
2016-08-22T01:06:55.374Z,1018.14
2016-08-22T01:07:05.370Z,1018.18
2016-08-22T01:07:15.366Z,1018.19
2016-08-22T01:07:25.368Z,1018.16
2016-08-22T01:07:35.356Z,1018.18
2016-08-22T01:07:45.352Z,1018.2
2016-08-22T01:07:56.075Z,1018.21
2016-08-22T01:08:05.341Z,1018.14
2016-08-22T01:08:15.336Z,1018.15
2016-08-22T01:08:25.334Z,1018.14
2016-08-22T01:08:35.328Z,1018.21
2016-08-22T01:08:45.321Z,1018.18
2016-08-22T01:08:55.317Z,1018.14
2016-08-22T01:09:05.312Z,1018.22
2016-08-22T01:09:15.305Z,1018.12
2016-08-22T01:09:26.033Z,1018.14
2016-08-22T01:09:35.297Z,1018.21
2016-08-22T01:09:45.292Z,1018.2
2016-08-22T01:09:55.289Z,1018.19
2016-08-22T01:10:05.283Z,1018.19
2016-08-22T01:10:15.277Z,1018.18
2016-08-22T01:10:25.274Z,1018.22
2016-08-22T01:10:35.269Z,1018.2
2016-08-22T01:10:45.265Z,1018.22
2016-08-22T01:10:55.261Z,1018.2
2016-08-22T01:11:05.255Z,1018.21
2016-08-22T01:11:15.251Z,1018.25
2016-08-22T01:11:25.243Z,1018.19
2016-08-22T01:11:35.242Z,1018.2
2016-08-22T01:11:45.235Z,1018.23
2016-08-22T01:11:55.232Z,1018.27
2016-08-22T01:12:05.228Z,1018.23
2016-08-22T01:12:15.222Z,1018.26
2016-08-22T01:12:25.218Z,1018.21
2016-08-22T01:12:35.212Z,1018.2
2016-08-22T01:12:45.207Z,1018.19
2016-08-22T01:12:55.203Z,1018.23
2016-08-22T01:13:05.209Z,1018.18
2016-08-22T01:13:15.192Z,1018.24
2016-08-22T01:13:25.185Z,1018.29
2016-08-22T01:13:35.181Z,1018.21
2016-08-22T01:13:45.178Z,1018.25
2016-08-22T01:13:55.181Z,1018.2
2016-08-22T01:14:05.169Z,1018.22
2016-08-22T01:14:15.169Z,1018.24
2016-08-22T01:14:25.159Z,1018.28
2016-08-22T01:14:35.156Z,1018.22
2016-08-22T01:14:45.151Z,1018.21
2016-08-22T01:14:55.145Z,1018.18
2016-08-22T01:15:05.139Z,1018.15
2016-08-22T01:15:15.137Z,1018.21
2016-08-22T01:15:25.131Z,1018.18
2016-08-22T01:15:35.125Z,1018.2
2016-08-22T01:15:45.120Z,1018.14
2016-08-22T01:15:55.116Z,1018.15
2016-08-22T01:16:05.112Z,1018.23
2016-08-22T01:16:15.111Z,1018.2
2016-08-22T01:16:25.832Z,1018.14
2016-08-22T01:16:35.095Z,1018.25
2016-08-22T01:16:45.092Z,1018.21
2016-08-22T01:16:55.088Z,1018.19
2016-08-22T01:17:05.081Z,1018.19
2016-08-22T01:17:15.078Z,1018.21
2016-08-22T01:17:25.074Z,1018.24
2016-08-22T01:17:35.073Z,1018.19
2016-08-22T01:17:45.063Z,1018.22
2016-08-22T01:17:55.059Z,1018.23
2016-08-22T01:18:05.782Z,1018.21
2016-08-22T01:18:15.050Z,1018.22
2016-08-22T01:18:25.047Z,1018.22
2016-08-22T01:18:35.043Z,1018.27
2016-08-22T01:18:45.035Z,1018.21
2016-08-22T01:18:55.050Z,1018.24
2016-08-22T01:19:05.757Z,1018.26
2016-08-22T01:19:15.020Z,1018.24
2016-08-22T01:19:25.015Z,1018.23
2016-08-22T01:19:35.011Z,1018.21
2016-08-22T01:19:45.007Z,1018.25
2016-08-22T01:19:55.000Z,1018.23
2016-08-22T01:20:04.996Z,1018.24
2016-08-22T01:20:14.988Z,1018.19
2016-08-22T01:20:24.986Z,1018.25
2016-08-22T01:20:34.993Z,1018.23
2016-08-22T01:20:44.975Z,1018.24
2016-08-22T01:20:54.972Z,1018.22
2016-08-22T01:21:04.967Z,1018.17
2016-08-22T01:21:14.962Z,1018.23
2016-08-22T01:21:24.958Z,1018.23
2016-08-22T01:21:34.954Z,1018.24
2016-08-22T01:21:44.948Z,1018.18
2016-08-22T01:21:54.946Z,1018.16
2016-08-22T01:22:04.940Z,1018.21
2016-08-22T01:22:14.934Z,1018.26
2016-08-22T01:22:24.928Z,1018.24
2016-08-22T01:22:34.927Z,1018.2
2016-08-22T01:22:44.919Z,1018.21
2016-08-22T01:22:54.912Z,1018.19
2016-08-22T01:23:04.911Z,1018.2
2016-08-22T01:23:14.913Z,1018.22
2016-08-22T01:23:24.900Z,1018.2
2016-08-22T01:23:34.895Z,1018.21
2016-08-22T01:23:44.891Z,1018.2
2016-08-22T01:23:54.884Z,1018.23
2016-08-22T01:24:04.881Z,1018.22
2016-08-22T01:24:14.875Z,1018.23
2016-08-22T01:24:24.871Z,1018.22
2016-08-22T01:24:34.866Z,1018.22
2016-08-22T01:24:44.864Z,1018.21
2016-08-22T01:24:54.858Z,1018.24
2016-08-22T01:25:04.855Z,1018.25
2016-08-22T01:25:14.850Z,1018.26
2016-08-22T01:25:25.572Z,1018.23
2016-08-22T01:25:34.838Z,1018.25
2016-08-22T01:25:44.834Z,1018.25
2016-08-22T01:25:54.827Z,1018.23
2016-08-22T01:26:04.825Z,1018.24
2016-08-22T01:26:14.821Z,1018.25
2016-08-22T01:26:24.812Z,1018.31
2016-08-22T01:26:34.812Z,1018.3
2016-08-22T01:26:44.805Z,1018.28
2016-08-22T01:26:54.799Z,1018.28
2016-08-22T01:27:04.796Z,1018.31
2016-08-22T01:27:14.791Z,1018.31
2016-08-22T01:27:25.512Z,1018.32
2016-08-22T01:27:34.780Z,1018.32
2016-08-22T01:27:44.779Z,1018.29
2016-08-22T01:27:54.772Z,1018.26
2016-08-22T01:28:04.767Z,1018.28
2016-08-22T01:28:14.762Z,1018.32
2016-08-22T01:28:24.756Z,1018.24
2016-08-22T01:28:34.753Z,1018.26
2016-08-22T01:28:44.746Z,1018.28
2016-08-22T01:28:54.743Z,1018.32
2016-08-22T01:29:04.736Z,1018.3
2016-08-22T01:29:14.739Z,1018.3
2016-08-22T01:29:24.727Z,1018.3
2016-08-22T01:29:34.730Z,1018.34
2016-08-22T01:29:44.717Z,1018.31
2016-08-22T01:29:54.713Z,1018.28
2016-08-22T01:30:04.709Z,1018.3
2016-08-22T01:30:14.703Z,1018.3
2016-08-22T01:30:24.700Z,1018.34
2016-08-22T01:30:34.693Z,1018.31
2016-08-22T01:30:45.417Z,1018.25
2016-08-22T01:30:54.684Z,1018.26
2016-08-22T01:31:04.679Z,1018.26
2016-08-22T01:31:14.683Z,1018.27
2016-08-22T01:31:24.671Z,1018.24
2016-08-22T01:31:34.666Z,1018.26
2016-08-22T01:31:44.660Z,1018.29
2016-08-22T01:31:54.655Z,1018.25
2016-08-22T01:32:04.652Z,1018.27
2016-08-22T01:32:14.649Z,1018.29
2016-08-22T01:32:24.648Z,1018.26
2016-08-22T01:32:34.635Z,1018.27
2016-08-22T01:32:44.631Z,1018.27
2016-08-22T01:32:54.627Z,1018.26
2016-08-22T01:33:04.633Z,1018.31
2016-08-22T01:33:14.616Z,1018.31
2016-08-22T01:33:24.613Z,1018.33
2016-08-22T01:33:34.606Z,1018.3
2016-08-22T01:33:44.603Z,1018.27
2016-08-22T01:33:54.596Z,1018.27
2016-08-22T01:34:04.592Z,1018.29
2016-08-22T01:34:14.593Z,1018.32
2016-08-22T01:34:24.585Z,1018.32
2016-08-22T01:34:34.578Z,1018.33
2016-08-22T01:34:44.574Z,1018.32
2016-08-22T01:34:54.569Z,1018.31
2016-08-22T01:35:04.564Z,1018.28
2016-08-22T01:35:14.559Z,1018.34
2016-08-22T01:35:24.555Z,1018.26
2016-08-22T01:35:34.551Z,1018.31
2016-08-22T01:35:44.547Z,1018.33
2016-08-22T01:35:54.540Z,1018.33
2016-08-22T01:36:04.544Z,1018.3
2016-08-22T01:36:14.531Z,1018.3
2016-08-22T01:36:24.527Z,1018.27
2016-08-22T01:36:34.521Z,1018.32
2016-08-22T01:36:44.516Z,1018.3
2016-08-22T01:36:54.511Z,1018.32
2016-08-22T01:37:04.505Z,1018.32
2016-08-22T01:37:14.503Z,1018.32
2016-08-22T01:37:24.498Z,1018.31
2016-08-22T01:37:34.490Z,1018.32
2016-08-22T01:37:44.486Z,1018.38
2016-08-22T01:37:54.482Z,1018.32
2016-08-22T01:38:04.476Z,1018.35
2016-08-22T01:38:14.474Z,1018.31
2016-08-22T01:38:24.468Z,1018.32
2016-08-22T01:38:34.467Z,1018.33
2016-08-22T01:38:44.458Z,1018.31
2016-08-22T01:38:54.454Z,1018.28
2016-08-22T01:39:04.452Z,1018.39
2016-08-22T01:39:14.455Z,1018.37
2016-08-22T01:39:24.441Z,1018.29
2016-08-22T01:39:34.435Z,1018.35
2016-08-22T01:39:44.429Z,1018.36
2016-08-22T01:39:54.423Z,1018.39
2016-08-22T01:40:04.421Z,1018.35
2016-08-22T01:40:14.414Z,1018.36
2016-08-22T01:40:24.410Z,1018.35
2016-08-22T01:40:34.405Z,1018.4
2016-08-22T01:40:44.401Z,1018.4
2016-08-22T01:40:54.396Z,1018.38
2016-08-22T01:41:04.392Z,1018.34
2016-08-22T01:41:14.386Z,1018.38
2016-08-22T01:41:24.382Z,1018.4
2016-08-22T01:41:34.379Z,1018.39
2016-08-22T01:41:44.372Z,1018.35
2016-08-22T01:41:54.368Z,1018.36
2016-08-22T01:42:04.367Z,1018.42
2016-08-22T01:42:14.359Z,1018.42
2016-08-22T01:42:24.353Z,1018.37
2016-08-22T01:42:34.352Z,1018.34
2016-08-22T01:42:44.343Z,1018.39
2016-08-22T01:42:54.340Z,1018.38
2016-08-22T01:43:04.334Z,1018.4
2016-08-22T01:43:14.330Z,1018.38
2016-08-22T01:43:24.324Z,1018.34
2016-08-22T01:43:34.319Z,1018.36
2016-08-22T01:43:44.315Z,1018.37
2016-08-22T01:43:54.312Z,1018.33
2016-08-22T01:44:04.305Z,1018.33
2016-08-22T01:44:14.298Z,1018.34
2016-08-22T01:44:24.294Z,1018.32
2016-08-22T01:44:34.291Z,1018.33
2016-08-22T01:44:44.286Z,1018.34
2016-08-22T01:44:54.280Z,1018.33
2016-08-22T01:45:04.276Z,1018.28
2016-08-22T01:45:14.271Z,1018.3
2016-08-22T01:45:24.269Z,1018.32
2016-08-22T01:45:34.263Z,1018.27
2016-08-22T01:45:44.269Z,1018.29
2016-08-22T01:45:54.253Z,1018.34
2016-08-22T01:46:04.247Z,1018.29
2016-08-22T01:46:14.248Z,1018.27
2016-08-22T01:46:24.239Z,1018.26
2016-08-22T01:46:34.233Z,1018.28
2016-08-22T01:46:44.231Z,1018.27
2016-08-22T01:46:54.223Z,1018.33
2016-08-22T01:47:04.219Z,1018.25
2016-08-22T01:47:14.214Z,1018.34
2016-08-22T01:47:24.209Z,1018.34
2016-08-22T01:47:34.204Z,1018.33
2016-08-22T01:47:44.200Z,1018.33
2016-08-22T01:47:54.204Z,1018.32
2016-08-22T01:48:04.190Z,1018.29
2016-08-22T01:48:14.185Z,1018.29
2016-08-22T01:48:24.184Z,1018.3
2016-08-22T01:48:34.177Z,1018.28
2016-08-22T01:48:44.189Z,1018.31
2016-08-22T01:48:54.166Z,1018.35
2016-08-22T01:49:04.161Z,1018.37
2016-08-22T01:49:14.157Z,1018.36
2016-08-22T01:49:24.151Z,1018.37
2016-08-22T01:49:34.147Z,1018.32
2016-08-22T01:49:44.153Z,1018.33
2016-08-22T01:49:54.137Z,1018.33
2016-08-22T01:50:04.139Z,1018.29
2016-08-22T01:50:14.129Z,1018.32
2016-08-22T01:50:24.124Z,1018.32
2016-08-22T01:50:34.118Z,1018.33
2016-08-22T01:50:44.112Z,1018.29
2016-08-22T01:50:54.108Z,1018.3
2016-08-22T01:51:04.100Z,1018.31
2016-08-22T01:51:14.099Z,1018.3
2016-08-22T01:51:24.095Z,1018.29
2016-08-22T01:51:34.089Z,1018.26
2016-08-22T01:51:44.090Z,1018.28
2016-08-22T01:51:54.079Z,1018.32
2016-08-22T01:52:04.075Z,1018.28
2016-08-22T01:52:14.067Z,1018.26
2016-08-22T01:52:24.066Z,1018.33
2016-08-22T01:52:34.061Z,1018.33
2016-08-22T01:52:44.056Z,1018.3
2016-08-22T01:52:54.051Z,1018.34
2016-08-22T01:53:04.046Z,1018.28
2016-08-22T01:53:14.055Z,1018.28
2016-08-22T01:53:24.038Z,1018.24
2016-08-22T01:53:34.030Z,1018.29
2016-08-22T01:53:44.025Z,1018.23
2016-08-22T01:53:54.021Z,1018.27
2016-08-22T01:54:04.016Z,1018.26
2016-08-22T01:54:14.012Z,1018.27
2016-08-22T01:54:24.007Z,1018.29
2016-08-22T01:54:33.999Z,1018.27
2016-08-22T01:54:43.996Z,1018.23
2016-08-22T01:54:53.992Z,1018.24
2016-08-22T01:55:03.992Z,1018.23
2016-08-22T01:55:13.984Z,1018.27
2016-08-22T01:55:23.980Z,1018.29
2016-08-22T01:55:33.975Z,1018.29
2016-08-22T01:55:43.970Z,1018.24
2016-08-22T01:55:53.964Z,1018.26
2016-08-22T01:56:03.971Z,1018.28
2016-08-22T01:56:13.953Z,1018.34
2016-08-22T01:56:23.949Z,1018.3
2016-08-22T01:56:33.944Z,1018.28
2016-08-22T01:56:43.940Z,1018.27
2016-08-22T01:56:53.933Z,1018.27
2016-08-22T01:57:04.664Z,1018.29
2016-08-22T01:57:13.922Z,1018.26
2016-08-22T01:57:23.920Z,1018.31
2016-08-22T01:57:33.916Z,1018.27
2016-08-22T01:57:43.910Z,1018.26
2016-08-22T01:57:53.908Z,1018.25
2016-08-22T01:58:03.901Z,1018.28
2016-08-22T01:58:13.894Z,1018.3
2016-08-22T01:58:23.897Z,1018.33
2016-08-22T01:58:33.885Z,1018.31
2016-08-22T01:58:43.884Z,1018.3
2016-08-22T01:58:53.878Z,1018.27
2016-08-22T01:59:03.871Z,1018.33
2016-08-22T01:59:13.870Z,1018.26
2016-08-22T01:59:23.874Z,1018.32
2016-08-22T01:59:33.856Z,1018.34
2016-08-22T01:59:43.855Z,1018.34
2016-08-22T01:59:53.847Z,1018.29
2016-08-22T02:00:03.844Z,1018.29
2016-08-22T02:00:13.840Z,1018.34
2016-08-22T02:00:24.562Z,1018.35
2016-08-22T02:00:33.830Z,1018.33
2016-08-22T02:00:43.825Z,1018.35
2016-08-22T02:00:53.819Z,1018.31
2016-08-22T02:01:03.815Z,1018.35
2016-08-22T02:01:13.809Z,1018.33
2016-08-22T02:01:23.804Z,1018.34